Time;durP1;ratioP1;P1;durP2;ratioP2;P2;SDS_P1;SDS_P2;PMS_P1;PMS_P2;Temp;Humidity;BMP_temperature;BMP_pressure;BME280_temperature;BME280_humidity;BME280_pressure;Samples;Min_cycle;Max_cycle;Signal;HPM_P1;HPM_P2
2023/10/27 00:00:16;;;;;;;18.40;12.60;;;;;;;13.62;80.44;98534.20;107420;1254;64434;-79
2023/10/27 00:02:44;;;;;;;17.20;12.90;;;;;;;13.63;80.54;98542.12;107190;1255;61195;-79
2023/10/27 00:05:11;;;;;;;17.10;12.60;;;;;;;13.64;80.60;98543.60;107073;1254;63745;-78
2023/10/27 00:07:38;;;;;;;18.30;12.40;;;;;;;13.64;80.60;98545.65;106838;1254;61349;-78
2023/10/27 00:10:07;;;;;;;17.10;12.60;;;;;;;13.65;80.84;98545.66;106867;1257;61262;-78
2023/10/27 00:12:34;;;;;;;20.70;13.50;;;;;;;13.67;80.98;98541.71;106764;1257;65742;-78
2023/10/27 00:15:03;;;;;;;16.80;12.70;;;;;;;13.69;81.12;98545.52;106786;1259;61263;-78
2023/10/27 00:17:30;;;;;;;16.50;12.00;;;;;;;13.71;81.13;98546.10;106746;1258;63662;-78
2023/10/27 00:19:58;;;;;;;13.70;11.40;;;;;;;13.73;81.42;98549.59;106673;1259;61272;-78
2023/10/27 00:22:25;;;;;;;12.80;9.60;;;;;;;13.74;81.64;98549.16;106234;1259;61337;-80
2023/10/27 00:24:53;;;;;;;13.70;9.60;;;;;;;13.78;81.85;98546.85;106336;1256;64439;-80
2023/10/27 00:27:20;;;;;;;10.90;8.70;;;;;;;13.81;82.04;98539.75;106194;1259;61220;-79
2023/10/27 00:29:47;;;;;;;11.20;8.90;;;;;;;13.84;82.13;98536.39;106816;1258;63978;-78
2023/10/27 00:32:15;;;;;;;12.40;8.90;;;;;;;13.86;82.35;98532.38;106882;1259;61249;-79
2023/10/27 00:34:42;;;;;;;14.00;9.40;;;;;;;13.87;82.31;98534.88;106931;1252;61407;-80
2023/10/27 00:37:10;;;;;;;15.80;8.60;;;;;;;13.87;82.29;98526.75;107064;1254;64456;-80
2023/10/27 00:39:39;;;;;;;13.80;8.50;;;;;;;13.86;82.34;98517.85;107059;1259;61249;-79
2023/10/27 00:42:07;;;;;;;11.20;8.90;;;;;;;13.86;82.27;98520.20;107156;1259;62464;-80
2023/10/27 00:44:35;;;;;;;12.00;8.30;;;;;;;13.86;82.24;98525.48;107360;1254;61342;-80
2023/10/27 00:47:03;;;;;;;11.60;8.40;;;;;;;13.86;82.33;98536.98;107066;1257;61266;-79
2023/10/27 00:49:30;;;;;;;10.70;8.50;;;;;;;13.85;82.47;98531.92;106785;1257;64440;-79
2023/10/27 00:51:57;;;;;;;10.60;8.70;;;;;;;13.84;82.43;98528.69;106792;1254;61157;-79
2023/10/27 00:54:25;;;;;;;11.80;9.00;;;;;;;13.84;82.42;98528.08;107061;1254;62498;-80
2023/10/27 00:56:55;;;;;;;12.60;8.10;;;;;;;13.82;82.46;98525.69;108484;1254;59703;-79
2023/10/27 00:59:23;;;;;;;13.60;8.40;;;;;;;13.80;82.48;98516.02;108317;1254;61250;-80
2023/10/27 01:01:50;;;;;;;10.30;8.40;;;;;;;13.79;82.54;98514.45;107517;1253;65711;-80
2023/10/27 01:04:18;;;;;;;13.00;8.30;;;;;;;13.79;82.59;98516.58;106799;1259;61151;-79
2023/10/27 01:06:46;;;;;;;12.30;8.10;;;;;;;13.79;82.57;98517.27;105873;1255;63736;-80
2023/10/27 01:09:17;;;;;;;11.60;8.00;;;;;;;13.80;82.59;98510.54;105853;1259;61248;-79
2023/10/27 01:11:45;;;;;;;11.20;7.50;;;;;;;13.80;82.69;98507.16;105771;1260;61163;-79
2023/10/27 01:14:12;;;;;;;11.90;8.30;;;;;;;13.81;82.77;98506.20;105727;1257;64511;-79
2023/10/27 01:16:41;;;;;;;10.20;8.20;;;;;;;13.81;82.89;98501.23;105704;1260;61342;-79
2023/10/27 01:19:08;;;;;;;9.90;7.60;;;;;;;13.81;82.93;98503.17;105774;1259;63725;-79
2023/10/27 01:21:36;;;;;;;10.30;8.00;;;;;;;13.81;83.19;98503.18;105867;1259;61925;-80
2023/10/27 01:24:04;;;;;;;10.80;8.00;;;;;;;13.81;83.20;98498.04;105702;1259;61240;-81
2023/10/27 01:26:32;;;;;;;11.90;8.60;;;;;;;13.81;83.21;98493.92;105831;1257;65797;-79
2023/10/27 01:28:59;;;;;;;11.80;7.80;;;;;;;13.81;83.24;98492.34;105848;1259;61349;-79
2023/10/27 01:31:27;;;;;;;14.70;7.90;;;;;;;13.80;83.31;98493.66;106050;1257;62541;-78
2023/10/27 01:33:54;;;;;;;11.00;8.60;;;;;;;13.80;83.37;98499.20;106041;1257;61255;-78
2023/10/27 01:36:22;;;;;;;11.70;8.30;;;;;;;13.78;83.35;98494.40;105806;1261;59919;-79
2023/10/27 01:38:49;;;;;;;13.20;8.70;;;;;;;13.78;83.35;98492.02;105730;1254;64521;-78
2023/10/27 01:41:17;;;;;;;11.40;8.30;;;;;;;13.78;83.47;98493.45;105720;1258;61302;-79
2023/10/27 01:43:44;;;;;;;12.30;8.50;;;;;;;13.77;83.58;98490.67;105785;1259;62517;-78
2023/10/27 01:46:12;;;;;;;11.50;8.10;;;;;;;13.75;83.75;98482.71;105829;1260;61464;-78
2023/10/27 01:48:39;;;;;;;8.70;6.90;;;;;;;13.75;83.76;98486.98;106010;1257;62908;-78
2023/10/27 01:51:07;;;;;;;11.70;8.40;;;;;;;13.73;83.80;98492.86;105947;1259;65878;-79
2023/10/27 01:53:34;;;;;;;11.70;8.40;;;;;;;13.72;83.92;98496.40;105812;1257;61349;-78
2023/10/27 01:56:02;;;;;;;11.60;8.40;;;;;;;13.70;83.82;98499.24;105835;1260;63745;-79
2023/10/27 01:58:29;;;;;;;12.10;8.00;;;;;;;13.67;83.76;98496.49;105752;1254;61396;-79
2023/10/27 02:00:57;;;;;;;10.10;8.00;;;;;;;13.62;83.86;98496.69;105913;1258;61438;-79
2023/10/27 02:03:25;;;;;;;14.00;8.40;;;;;;;13.58;83.69;98492.76;105542;1254;65798;-79
2023/10/27 02:05:52;;;;;;;11.00;7.80;;;;;;;13.55;83.85;98486.28;105741;1267;69561;-79
2023/10/27 02:08:19;;;;;;;12.20;8.40;;;;;;;13.53;83.86;98490.39;105868;1257;62451;-79
2023/10/27 02:10:47;;;;;;;9.60;8.10;;;;;;;13.50;83.90;98493.43;105706;1257;61278;-79
2023/10/27 02:13:15;;;;;;;12.70;8.20;;;;;;;13.47;83.92;98493.62;105784;1256;61226;-80
2023/10/27 02:15:42;;;;;;;11.90;8.40;;;;;;;13.46;83.98;98489.85;105779;1252;65761;-80
2023/10/27 02:18:10;;;;;;;10.40;8.10;;;;;;;13.46;84.07;98489.48;105683;1254;61351;-80
2023/10/27 02:20:38;;;;;;;12.50;8.20;;;;;;;13.46;84.00;98489.12;105760;1259;63744;-80
2023/10/27 02:23:05;;;;;;;11.80;8.50;;;;;;;13.46;84.12;98486.02;105565;1260;61295;-80
2023/10/27 02:25:33;;;;;;;13.40;8.30;;;;;;;13.45;84.25;98487.11;105760;1257;61359;-80
2023/10/27 02:28:01;;;;;;;13.80;8.20;;;;;;;13.45;84.23;98490.52;105774;1260;65806;-79
2023/10/27 02:30:29;;;;;;;10.00;7.90;;;;;;;13.45;84.55;98499.05;105857;1259;61474;-79
2023/10/27 02:32:56;;;;;;;11.50;8.40;;;;;;;13.43;84.53;98500.42;105800;1256;63760;-79
2023/10/27 02:35:25;;;;;;;17.00;8.90;;;;;;;13.42;84.49;98497.93;105860;1258;61355;-79
2023/10/27 02:37:56;;;;;;;15.90;8.50;;;;;;;13.42;84.65;98498.70;105848;1258;61358;-80
2023/10/27 02:40:23;;;;;;;11.40;8.10;;;;;;;13.41;84.64;98503.70;106067;1254;64509;-80
2023/10/27 02:42:51;;;;;;;12.40;8.60;;;;;;;13.41;84.52;98512.59;105889;1260;61250;-79
2023/10/27 02:45:21;;;;;;;12.30;8.80;;;;;;;13.40;84.61;98517.80;105820;1260;62672;-80
2023/10/27 02:47:48;;;;;;;11.10;8.50;;;;;;;13.39;84.71;98518.97;105856;1259;61366;-80
2023/10/27 02:50:16;;;;;;;15.00;9.50;;;;;;;13.38;84.67;98513.05;105821;1259;61182;-79
2023/10/27 02:52:43;;;;;;;13.00;9.30;;;;;;;13.37;84.69;98511.77;105823;1259;65750;-79
2023/10/27 02:55:11;;;;;;;11.20;8.70;;;;;;;13.36;84.76;98507.92;105871;1255;61248;-79
2023/10/27 02:57:38;;;;;;;12.60;8.70;;;;;;;13.34;84.80;98503.74;105850;1254;62509;-79
2023/10/27 03:00:08;;;;;;;13.30;8.40;;;;;;;13.32;84.78;98500.88;105795;1261;61369;-79
2023/10/27 03:02:35;;;;;;;14.10;8.80;;;;;;;13.30;84.82;98500.59;105905;1254;61352;-80
2023/10/27 03:05:03;;;;;;;14.90;8.30;;;;;;;13.29;84.81;98498.12;105684;1259;65907;-79
2023/10/27 03:07:31;;;;;;;12.40;7.90;;;;;;;13.27;84.67;98497.69;105841;1260;61336;-80
2023/10/27 03:09:58;;;;;;;14.00;8.70;;;;;;;13.25;84.68;98500.64;105870;1257;63694;-79
2023/10/27 03:12:28;;;;;;;14.70;9.00;;;;;;;13.22;84.67;98507.63;105762;1259;61334;-79
2023/10/27 03:14:56;;;;;;;14.40;9.10;;;;;;;13.19;84.74;98510.25;105864;1254;61269;-79
2023/10/27 03:17:24;;;;;;;10.90;8.60;;;;;;;13.16;84.83;98508.25;105754;1258;65836;-79
2023/10/27 03:19:52;;;;;;;14.60;8.30;;;;;;;13.15;84.71;98505.19;105820;1258;61253;-79
2023/10/27 03:22:22;;;;;;;13.20;8.70;;;;;;;13.13;84.83;98505.98;106138;1254;63687;-80
2023/10/27 03:24:50;;;;;;;15.20;8.80;;;;;;;13.11;84.83;98499.86;105636;1265;61355;-79
2023/10/27 03:27:18;;;;;;;12.00;9.20;;;;;;;13.09;84.84;98503.41;105908;1254;61336;-79
2023/10/27 03:29:45;;;;;;;19.80;10.30;;;;;;;13.08;84.97;98494.73;105880;1253;65767;-79
2023/10/27 03:32:14;;;;;;;39.00;10.60;;;;;;;13.08;84.98;98490.85;106102;1257;61253;-79
2023/10/27 03:34:46;;;;;;;78.30;10.70;;;;;;;13.08;85.00;98490.73;105840;1258;65646;-79
2023/10/27 03:37:13;;;;;;;41.20;10.50;;;;;;;13.06;85.04;98484.55;105825;1257;61352;-79
2023/10/27 03:39:42;;;;;;;96.30;10.10;;;;;;;13.06;85.05;98484.45;105857;1254;61330;-79
2023/10/27 03:42:10;;;;;;;18.30;9.50;;;;;;;13.04;84.95;98489.09;105963;1254;65827;-80
2023/10/27 03:44:40;;;;;;;17.20;9.70;;;;;;;13.02;84.95;98483.38;105878;1258;61371;-80
2023/10/27 03:47:09;;;;;;;14.90;9.60;;;;;;;13.01;85.04;98482.39;105706;1254;63673;-80
2023/10/27 03:49:36;;;;;;;17.60;9.10;;;;;;;13.00;84.99;98479.89;105833;1254;61272;-80
2023/10/27 03:52:04;;;;;;;12.30;8.80;;;;;;;12.97;84.88;98478.80;105871;1258;61870;-80
2023/10/27 03:54:31;;;;;;;16.00;9.70;;;;;;;12.94;84.92;98475.98;105967;1259;65712;-79
2023/10/27 03:57:01;;;;;;;44.80;9.40;;;;;;;12.93;84.92;98473.86;105642;1254;61297;-79
2023/10/27 03:59:29;;;;;;;29.00;9.60;;;;;;;12.91;84.97;98470.64;105767;1254;62546;-79
2023/10/27 04:01:57;;;;;;;63.20;10.80;;;;;;;12.89;85.06;98465.89;105900;1254;61362;-80
2023/10/27 04:04:24;;;;;;;160.40;11.40;;;;;;;12.90;85.06;98463.23;105812;1252;61221;-79
2023/10/27 04:06:53;;;;;;;183.80;12.10;;;;;;;12.88;84.83;98465.05;105943;1254;65218;-80
2023/10/27 04:09:21;;;;;;;78.00;10.70;;;;;;;12.86;84.87;98470.21;105963;1253;61397;-79
2023/10/27 04:11:49;;;;;;;469.70;15.70;;;;;;;12.84;84.82;98474.11;105919;1255;63714;-80
2023/10/27 04:14:17;;;;;;;519.10;15.50;;;;;;;12.81;84.68;98486.68;105949;1254;61383;-80
2023/10/27 04:16:46;;;;;;;341.40;12.60;;;;;;;12.78;84.76;98494.67;105789;1258;61724;-79
2023/10/27 04:19:13;;;;;;;294.10;11.80;;;;;;;12.75;84.75;98499.60;105968;1252;64509;-80
2023/10/27 04:21:43;;;;;;;172.40;11.00;;;;;;;12.72;84.82;98503.45;105970;1252;61203;-80
2023/10/27 04:24:10;;;;;;;148.70;10.00;;;;;;;12.71;84.89;98504.01;105879;1260;70956;-81
2023/10/27 04:26:38;;;;;;;207.30;10.70;;;;;;;12.70;84.89;98501.71;105957;1254;61285;-80
2023/10/27 04:29:06;;;;;;;163.70;9.30;;;;;;;12.68;84.94;98501.82;106003;1254;61279;-79
2023/10/27 04:31:34;;;;;;;82.50;9.30;;;;;;;12.68;85.00;98505.37;105971;1255;64454;-79
2023/10/27 04:34:01;;;;;;;102.30;9.20;;;;;;;12.68;85.10;98504.22;105958;1253;61381;-79
2023/10/27 04:36:29;;;;;;;65.90;8.50;;;;;;;12.67;85.05;98501.44;105791;1257;63730;-80
2023/10/27 04:38:57;;;;;;;39.70;8.60;;;;;;;12.67;85.02;98502.34;106313;1258;61372;-79
2023/10/27 04:41:25;;;;;;;29.00;8.20;;;;;;;12.67;85.00;98506.05;106145;1258;61204;-80
2023/10/27 04:43:52;;;;;;;45.90;8.50;;;;;;;12.67;85.06;98506.12;106117;1254;64444;-80
2023/10/27 04:46:20;;;;;;;27.70;8.20;;;;;;;12.66;85.07;98509.21;106313;1254;61422;-80
2023/10/27 04:48:47;;;;;;;23.20;9.00;;;;;;;12.64;85.05;98512.78;106087;1260;62541;-80
2023/10/27 04:51:15;;;;;;;13.00;9.00;;;;;;;12.63;85.05;98513.38;106274;1259;61350;-82
2023/10/27 04:53:42;;;;;;;16.00;9.10;;;;;;;12.63;84.99;98510.93;106336;1254;61420;-79
2023/10/27 04:56:10;;;;;;;17.80;9.40;;;;;;;12.62;85.00;98521.81;106407;1254;64441;-79
2023/10/27 04:58:39;;;;;;;11.70;9.20;;;;;;;12.61;85.00;98527.17;106141;1260;61304;-80
2023/10/27 05:01:06;;;;;;;14.90;9.60;;;;;;;12.59;84.85;98516.71;106283;1254;62441;-79
2023/10/27 05:03:34;;;;;;;9.70;8.70;;;;;;;12.56;84.75;98515.23;106155;1261;61189;-78
2023/10/27 05:06:11;;;;;;;11.50;8.60;;;;;;;12.55;84.74;98514.80;106354;1254;61161;-78
2023/10/27 05:08:38;;;;;;;9.60;8.50;;;;;;;12.55;84.72;98514.70;106636;1259;64452;-79
2023/10/27 05:11:06;;;;;;;9.90;8.10;;;;;;;12.54;84.71;98515.03;106293;1259;61331;-79
2023/10/27 05:13:33;;;;;;;10.50;7.90;;;;;;;12.52;84.79;98516.97;106280;1258;62535;-78
2023/10/27 05:16:01;;;;;;;8.40;7.50;;;;;;;12.51;84.75;98514.38;106139;1259;61174;-78
2023/10/27 05:18:29;;;;;;;9.80;7.80;;;;;;;12.51;84.69;98512.96;106262;1258;61173;-80
2023/10/27 05:20:56;;;;;;;10.50;8.10;;;;;;;12.53;84.94;98521.09;106281;1254;64706;-79
2023/10/27 05:23:24;;;;;;;10.80;7.90;;;;;;;12.54;85.01;98527.43;106467;1254;61234;-79
2023/10/27 05:25:52;;;;;;;11.90;7.70;;;;;;;12.55;84.99;98527.70;106412;1260;63762;-79
2023/10/27 05:28:20;;;;;;;8.20;7.30;;;;;;;12.57;85.04;98525.20;106507;1260;61372;-79
2023/10/27 05:30:50;;;;;;;9.40;7.50;;;;;;;12.59;85.14;98518.92;106523;1254;61253;-79
2023/10/27 05:33:18;;;;;;;11.80;7.90;;;;;;;12.64;85.30;98522.48;106482;1254;64555;-79
2023/10/27 05:35:45;;;;;;;10.00;7.70;;;;;;;12.69;85.34;98524.59;106608;1254;61184;-79
2023/10/27 05:38:14;;;;;;;9.50;7.70;;;;;;;12.74;85.38;98527.85;107944;1254;62443;-78
2023/10/27 05:40:41;;;;;;;11.30;7.80;;;;;;;12.79;85.42;98530.35;108302;1252;61249;-78
2023/10/27 05:43:09;;;;;;;12.60;7.70;;;;;;;12.84;85.52;98539.68;108255;1257;61203;-78
2023/10/27 05:45:36;;;;;;;11.20;8.20;;;;;;;12.88;85.60;98544.22;108531;1253;64474;-78
2023/10/27 05:48:04;;;;;;;10.00;7.90;;;;;;;12.92;85.58;98548.95;108506;1254;59077;-78
2023/10/27 05:50:31;;;;;;;7.70;5.90;;;;;;;12.97;85.57;98550.95;108679;1254;62442;-77
2023/10/27 05:52:59;;;;;;;9.10;7.30;;;;;;;12.99;85.61;98556.61;108418;1253;58853;-78
2023/10/27 05:55:27;;;;;;;9.70;7.10;;;;;;;13.01;85.61;98554.27;108456;1253;59245;-78
2023/10/27 05:57:55;;;;;;;10.10;6.50;;;;;;;13.04;85.58;98553.63;108468;1253;64495;-78
2023/10/27 06:00:22;;;;;;;9.30;6.90;;;;;;;13.06;85.49;98553.14;107607;1252;61253;-78
2023/10/27 06:02:52;;;;;;;9.80;6.80;;;;;;;13.07;85.43;98560.05;105951;1254;62543;-79
2023/10/27 06:05:20;;;;;;;11.10;6.90;;;;;;;13.10;85.45;98564.02;105925;1254;61384;-79
2023/10/27 06:07:48;;;;;;;8.60;6.90;;;;;;;13.10;85.35;98557.55;105769;1257;61272;-79
2023/10/27 06:10:16;;;;;;;10.80;7.00;;;;;;;13.13;85.39;98555.52;105817;1255;65744;-80
2023/10/27 06:12:43;;;;;;;8.70;6.80;;;;;;;13.15;85.31;98566.02;105905;1253;61187;-77
2023/10/27 06:15:11;;;;;;;13.20;7.30;;;;;;;13.16;85.32;98570.65;105595;1256;62462;-79
2023/10/27 06:17:38;;;;;;;10.50;7.10;;;;;;;13.17;85.35;98572.73;105811;1254;61295;-82
2023/10/27 06:20:07;;;;;;;10.20;7.50;;;;;;;13.17;85.32;98567.69;105734;1252;61282;-79
2023/10/27 06:22:44;;;;;;;8.90;7.30;;;;;;;13.19;85.35;98567.32;106021;1259;64539;-74
2023/10/27 06:25:11;;;;;;;11.40;7.60;;;;;;;13.20;85.37;98574.14;106157;1253;61269;-75
2023/10/27 06:27:39;;;;;;;10.30;8.00;;;;;;;13.21;85.40;98580.56;106058;1254;71580;-77
2023/10/27 06:30:07;;;;;;;12.10;8.30;;;;;;;13.21;85.29;98580.77;105616;1257;61186;-77
2023/10/27 06:32:34;;;;;;;13.50;8.90;;;;;;;13.22;85.30;98569.47;105616;1253;61305;-76
2023/10/27 06:35:03;;;;;;;12.20;9.20;;;;;;;13.26;85.42;98568.36;105734;1254;65755;-73
2023/10/27 06:37:31;;;;;;;12.70;9.90;;;;;;;13.28;85.48;98572.10;105828;1259;61279;-74
2023/10/27 06:39:58;;;;;;;20.40;15.30;;;;;;;13.31;85.45;98579.08;105866;1260;62522;-74
2023/10/27 06:42:27;;;;;;;15.20;11.20;;;;;;;13.33;85.42;98581.58;105920;1257;61275;-74
2023/10/27 06:44:54;;;;;;;13.20;9.50;;;;;;;13.36;85.48;98571.56;106314;1261;61237;-79
2023/10/27 06:47:21;;;;;;;12.80;8.30;;;;;;;13.39;85.58;98575.67;106034;1253;64558;-76
2023/10/27 06:49:50;;;;;;;12.20;8.40;;;;;;;13.42;85.44;98578.95;105763;1254;61266;-77
2023/10/27 06:52:17;;;;;;;11.20;8.60;;;;;;;13.45;85.55;98585.11;106235;1254;62593;-77
2023/10/27 06:54:46;;;;;;;12.60;9.10;;;;;;;13.48;85.57;98589.50;106227;1254;61275;-78
2023/10/27 06:57:13;;;;;;;13.00;9.30;;;;;;;13.52;85.63;98584.77;105955;1254;61310;-78
2023/10/27 06:59:41;;;;;;;10.40;9.10;;;;;;;13.58;85.61;98581.52;105774;1253;64433;-77
2023/10/27 07:02:08;;;;;;;12.20;9.10;;;;;;;13.65;85.80;98586.88;105858;1258;61267;-79
2023/10/27 07:04:36;;;;;;;12.50;9.70;;;;;;;13.73;86.02;98587.35;105916;1254;63833;-78
2023/10/27 07:07:05;;;;;;;11.60;8.90;;;;;;;13.82;86.11;98584.34;105880;1253;61333;-76
2023/10/27 07:09:51;;;;;;;11.90;9.20;;;;;;;13.88;85.88;98588.41;106173;1256;61260;-79
2023/10/27 07:12:18;;;;;;;11.70;8.70;;;;;;;13.92;85.74;98590.97;106004;1254;65766;-75
2023/10/27 07:14:46;;;;;;;11.30;9.50;;;;;;;13.96;85.69;98592.75;105918;1253;61866;-76
2023/10/27 07:17:14;;;;;;;12.50;9.40;;;;;;;14.01;85.65;98591.35;105983;1259;64650;-74
2023/10/27 07:19:41;;;;;;;11.30;8.90;;;;;;;14.07;85.61;98593.80;105862;1257;61984;-74
2023/10/27 07:22:09;;;;;;;12.60;8.30;;;;;;;14.15;85.50;98597.86;105865;1254;61384;-76
2023/10/27 07:24:37;;;;;;;13.40;8.30;;;;;;;14.21;85.36;98602.80;105944;1254;65746;-73
2023/10/27 07:27:04;;;;;;;10.40;7.70;;;;;;;14.26;85.06;98603.91;105849;1254;61294;-75
2023/10/27 07:29:32;;;;;;;10.70;8.00;;;;;;;14.31;85.00;98606.58;105971;1254;64931;-74
2023/10/27 07:32:00;;;;;;;17.60;11.30;;;;;;;14.39;84.86;98604.81;105886;1259;61324;-72
2023/10/27 07:34:27;;;;;;;19.90;14.20;;;;;;;14.49;84.71;98607.93;105989;1257;61231;-74
2023/10/27 07:36:55;;;;;;;18.00;13.40;;;;;;;14.61;84.41;98605.63;106137;1253;76203;-74
2023/10/27 07:39:23;;;;;;;23.50;13.40;;;;;;;14.68;84.15;98607.05;106082;1254;61249;-75
2023/10/27 07:41:51;;;;;;;20.50;12.70;;;;;;;14.76;83.70;98604.99;105743;1256;73509;-73
2023/10/27 07:44:18;;;;;;;14.80;12.90;;;;;;;14.83;83.36;98607.45;105856;1260;61371;-74
2023/10/27 07:46:46;;;;;;;13.40;10.30;;;;;;;14.90;82.88;98613.20;106062;1257;61183;-73
2023/10/27 07:49:14;;;;;;;11.50;8.80;;;;;;;14.94;82.32;98613.67;105906;1254;65717;-76
2023/10/27 07:51:42;;;;;;;12.10;9.50;;;;;;;15.01;81.86;98616.76;105830;1258;61218;-75
2023/10/27 07:54:09;;;;;;;13.40;9.70;;;;;;;15.09;81.59;98621.89;105957;1254;62732;-77
2023/10/27 07:56:37;;;;;;;9.60;8.60;;;;;;;15.16;81.13;98624.70;106062;1254;61244;-76
2023/10/27 07:59:04;;;;;;;11.80;7.80;;;;;;;15.23;80.67;98626.57;105890;1253;61355;-73
2023/10/27 08:01:32;;;;;;;11.40;6.50;;;;;;;15.28;80.17;98623.95;106411;1254;64524;-74
2023/10/27 08:04:02;;;;;;;7.90;6.10;;;;;;;15.31;79.57;98623.84;105898;1256;61365;-74
2023/10/27 08:06:30;;;;;;;9.00;7.20;;;;;;;15.36;79.34;98625.31;105826;1260;62876;-76
2023/10/27 08:08:58;;;;;;;9.70;6.50;;;;;;;15.42;78.98;98628.14;105850;1253;61374;-79
2023/10/27 08:11:26;;;;;;;7.30;5.50;;;;;;;15.46;78.45;98626.73;105871;1258;61302;-74
2023/10/27 08:13:53;;;;;;;6.80;5.10;;;;;;;15.51;78.22;98627.23;105980;1254;65933;-74
2023/10/27 08:16:21;;;;;;;8.80;4.90;;;;;;;15.60;78.09;98627.19;105808;1254;69117;-73
2023/10/27 08:18:48;;;;;;;7.30;5.40;;;;;;;15.69;77.55;98631.88;106001;1254;71821;-76
2023/10/27 08:21:16;;;;;;;9.00;6.10;;;;;;;15.77;77.01;98632.49;105788;1254;61383;-74
2023/10/27 08:23:43;;;;;;;6.20;4.70;;;;;;;15.84;76.90;98630.98;105769;1254;61289;-75
2023/10/27 08:26:11;;;;;;;7.90;4.90;;;;;;;15.93;76.30;98634.21;105695;1253;64547;-76
2023/10/27 08:28:38;;;;;;;8.50;4.50;;;;;;;16.02;75.90;98641.58;105826;1254;61348;-75
2023/10/27 08:31:06;;;;;;;8.50;3.90;;;;;;;16.11;75.35;98648.99;106511;1253;62517;-76
2023/10/27 08:33:35;;;;;;;8.50;4.70;;;;;;;16.18;74.96;98652.41;105843;1254;61332;-75
2023/10/27 08:36:03;;;;;;;6.70;4.00;;;;;;;16.29;74.63;98661.02;105884;1254;61362;-75
2023/10/27 08:38:32;;;;;;;6.70;3.60;;;;;;;16.37;73.97;98661.48;106048;1256;73187;-76
2023/10/27 08:41:00;;;;;;;6.90;4.30;;;;;;;16.45;73.71;98661.39;105908;1254;61285;-77
2023/10/27 08:43:28;;;;;;;5.50;3.70;;;;;;;16.55;73.12;98663.95;105822;1252;63810;-78
2023/10/27 08:45:55;;;;;;;8.20;3.30;;;;;;;16.66;72.76;98660.17;105678;1254;61343;-76
2023/10/27 08:48:23;;;;;;;3.70;2.70;;;;;;;16.78;72.00;98657.92;105706;1254;61135;-77
2023/10/27 08:50:51;;;;;;;4.40;2.80;;;;;;;16.84;70.61;98653.00;105733;1254;64670;-76
2023/10/27 08:53:19;;;;;;;4.00;2.60;;;;;;;16.89;69.74;98648.08;105846;1257;61305;-76
2023/10/27 08:55:48;;;;;;;4.20;3.10;;;;;;;16.97;69.46;98649.80;105466;1259;215472;-76
2023/10/27 08:58:16;;;;;;;4.40;3.30;;;;;;;17.08;68.85;98648.21;105698;1257;61326;-77
2023/10/27 09:00:48;;;;;;;6.70;3.10;;;;;;;17.19;68.84;98653.29;105692;1254;61321;-76
2023/10/27 09:03:16;;;;;;;4.90;3.20;;;;;;;17.33;68.43;98664.40;105712;1254;64826;-77
2023/10/27 09:05:44;;;;;;;5.00;2.60;;;;;;;17.44;67.49;98674.63;105659;1256;61349;-76
2023/10/27 09:08:12;;;;;;;3.90;2.60;;;;;;;17.53;66.15;98676.66;105801;1254;62510;-79
2023/10/27 09:10:39;;;;;;;5.30;3.00;;;;;;;17.60;65.52;98665.52;105830;1257;61344;-79
2023/10/27 09:13:09;;;;;;;3.70;2.70;;;;;;;17.64;65.12;98662.06;105694;1254;61288;-77
2023/10/27 09:15:45;;;;;;;3.40;2.50;;;;;;;17.69;64.47;98661.61;105707;1259;67618;-78
2023/10/27 09:18:13;;;;;;;4.50;2.70;;;;;;;17.79;64.63;98657.23;105704;1258;61260;-77
2023/10/27 09:20:51;;;;;;;4.30;2.60;;;;;;;17.93;64.33;98656.22;105896;1254;62573;-76
2023/10/27 09:23:20;;;;;;;6.50;2.40;;;;;;;18.09;64.04;98661.17;105708;1256;62279;-78
2023/10/27 09:25:47;;;;;;;4.40;2.60;;;;;;;18.22;63.18;98660.71;105754;1254;61369;-77
2023/10/27 09:28:15;;;;;;;4.80;2.40;;;;;;;18.36;62.77;98661.21;105861;1254;65691;-76
2023/10/27 09:30:43;;;;;;;3.30;2.50;;;;;;;18.50;62.09;98662.65;105475;1262;61277;-77
2023/10/27 09:33:12;;;;;;;4.30;2.10;;;;;;;18.62;60.73;98652.64;105906;1254;62529;-76
2023/10/27 09:35:40;;;;;;;3.40;1.90;;;;;;;18.71;60.08;98653.38;105711;1255;61375;-74
2023/10/27 09:38:12;;;;;;;2.90;1.80;;;;;;;18.82;60.11;98655.65;105626;1259;61301;-75
2023/10/27 09:40:41;;;;;;;3.80;1.80;;;;;;;18.98;59.60;98655.98;105797;1254;68103;-74
2023/10/27 09:43:19;;;;;;;3.80;1.90;;;;;;;19.09;58.69;98654.50;105866;1259;61334;-73
2023/10/27 09:45:58;;;;;;;2.90;1.60;;;;;;;19.20;58.67;98652.52;105938;1254;63792;-73
2023/10/27 09:48:27;;;;;;;5.10;1.80;;;;;;;19.31;57.93;98650.31;105761;1259;61291;-76
2023/10/27 09:51:04;;;;;;;2.70;1.70;;;;;;;19.41;56.74;98643.55;105742;1253;61330;-77
2023/10/27 09:53:32;;;;;;;3.80;1.50;;;;;;;19.50;55.54;98639.02;105917;1258;66244;-78
2023/10/27 09:56:06;;;;;;;6.30;1.60;;;;;;;19.57;54.91;98639.94;106103;1254;69077;-76
2023/10/27 09:58:41;;;;;;;2.10;1.30;;;;;;;19.64;54.09;98635.39;105813;1257;65261;-76
2023/10/27 10:01:11;;;;;;;2.90;1.40;;;;;;;19.72;52.65;98632.59;107104;1253;64419;-77
2023/10/27 10:03:41;;;;;;;2.30;1.40;;;;;;;19.77;53.03;98625.61;105835;1259;61373;-76
2023/10/27 10:06:23;;;;;;;2.50;1.40;;;;;;;19.86;52.88;98623.13;105893;1258;64994;-77
2023/10/27 10:09:10;;;;;;;4.40;1.40;;;;;;;19.95;52.12;98614.80;105651;1254;61349;-79
2023/10/27 10:11:47;;;;;;;3.10;1.60;;;;;;;20.02;51.99;98609.69;105865;1254;64927;-79
2023/10/27 10:14:45;;;;;;;2.40;2.00;;;;;;;20.11;52.16;98608.66;105965;1256;61355;-81
2023/10/27 10:17:40;;;;;;;3.20;2.20;;;;;;;20.22;52.30;98609.09;105806;1252;61320;-80
2023/10/27 10:20:09;;;;;;;4.20;1.40;;;;;;;20.34;51.99;98611.90;105960;1252;65105;-79
2023/10/27 10:22:39;;;;;;;4.40;1.20;;;;;;;20.45;50.31;98604.71;105805;1254;61340;-80
2023/10/27 10:25:23;;;;;;;2.00;1.10;;;;;;;20.56;48.75;98602.48;105754;1253;63807;-80
2023/10/27 10:28:09;;;;;;;1.90;1.10;;;;;;;20.64;47.81;98600.77;105779;1259;61301;-80
2023/10/27 10:30:41;;;;;;;2.10;1.10;;;;;;;20.72;47.46;98599.40;105902;1259;61577;-79
2023/10/27 10:33:16;;;;;;;1.30;1.00;;;;;;;20.82;47.69;98600.98;105787;1254;65797;-80
2023/10/27 10:35:44;;;;;;;5.10;1.40;;;;;;;20.96;47.87;98604.30;105901;1259;61223;-77
2023/10/27 10:38:21;;;;;;;1.90;1.40;;;;;;;21.03;47.12;98608.56;105866;1253;63918;-79
2023/10/27 10:40:56;;;;;;;2.50;1.60;;;;;;;20.95;47.33;98606.77;105638;1254;61353;-78
2023/10/27 10:43:40;;;;;;;2.20;1.60;;;;;;;20.80;47.40;98608.56;105897;1254;61218;-78
2023/10/27 10:46:12;;;;;;;2.00;1.60;;;;;;;20.61;47.86;98605.44;105939;1252;64691;-77
2023/10/27 10:48:47;;;;;;;3.10;1.70;;;;;;;20.48;48.15;98604.21;105734;1253;61238;-76
2023/10/27 10:51:15;;;;;;;1.70;1.30;;;;;;;20.37;48.48;98598.95;105751;1258;62539;-75
2023/10/27 10:53:53;;;;;;;4.30;1.40;;;;;;;20.25;49.22;98591.73;105900;1253;61196;-76
2023/10/27 10:56:22;;;;;;;2.30;1.20;;;;;;;20.16;49.88;98583.90;105854;1254;61257;-77
2023/10/27 10:58:49;;;;;;;2.50;1.30;;;;;;;20.09;49.97;98583.50;105744;1259;65825;-76
2023/10/27 11:01:18;;;;;;;2.00;1.10;;;;;;;20.02;49.89;98583.05;105819;1254;61294;-75
2023/10/27 11:03:48;;;;;;;2.40;1.10;;;;;;;19.96;49.70;98578.92;105791;1255;64087;-73
2023/10/27 11:06:20;;;;;;;2.70;1.10;;;;;;;19.90;49.31;98572.61;105776;1258;61195;-79
2023/10/27 11:08:47;;;;;;;2.00;1.10;;;;;;;19.87;49.48;98572.81;105700;1254;61236;-75
2023/10/27 11:11:18;;;;;;;1.50;1.10;;;;;;;19.88;49.80;98571.77;105920;1256;64527;-76
2023/10/27 11:13:51;;;;;;;1.90;1.10;;;;;;;19.92;49.63;98572.87;105678;1259;61320;-75
2023/10/27 11:16:22;;;;;;;1.70;1.00;;;;;;;19.96;49.21;98572.61;105801;1258;64830;-74
2023/10/27 11:18:52;;;;;;;2.50;1.20;;;;;;;20.00;49.49;98574.17;105873;1255;61336;-75
2023/10/27 11:21:21;;;;;;;1.60;1.10;;;;;;;20.01;48.90;98573.71;105743;1254;61364;-73
2023/10/27 11:23:49;;;;;;;2.00;1.20;;;;;;;19.95;48.62;98570.06;106401;1254;65850;-74
2023/10/27 11:26:19;;;;;;;3.70;1.00;;;;;;;19.89;48.51;98568.50;105671;1254;61158;-74